Time;durP1;ratioP1;P1;durP2;ratioP2;P2;SDS_P1;SDS_P2;PMS_P1;PMS_P2;Temp;Humidity;BMP_temperature;BMP_pressure;BME280_temperature;BME280_humidity;BME280_pressure;Samples;Min_cycle;Max_cycle;Signal;HPM_P1;HPM_P2
2022/03/01 04:01:10;;;;;;;1.83;1.55;;;15.80;47.90;;;;;;5573801;23;46306;-67
2022/03/01 04:03:36;;;;;;;1.85;1.58;;;15.80;47.90;;;;;;4899481;28;45786;-66
2022/03/01 04:06:02;;;;;;;2.20;1.77;;;15.80;47.90;;;;;;4921250;28;45756;-66
2022/03/01 04:08:28;;;;;;;2.95;1.92;;;15.70;47.80;;;;;;4912785;28;45678;-65
2022/03/01 04:10:56;;;;;;;2.20;1.77;;;15.80;47.90;;;;;;4920560;28;46476;-66
2022/03/01 04:13:23;;;;;;;3.47;2.35;;;15.70;47.90;;;;;;4919932;28;45353;-66
2022/03/01 04:15:49;;;;;;;2.80;1.90;;;15.70;47.90;;;;;;4905025;28;45737;-70
2022/03/01 04:18:14;;;;;;;2.30;1.60;;;15.70;48.00;;;;;;4901357;28;46347;-66
2022/03/01 04:20:40;;;;;;;1.75;1.65;;;15.60;47.90;;;;;;4917798;28;44895;-66
2022/03/01 04:23:06;;;;;;;2.28;1.80;;;15.60;48.00;;;;;;4922724;28;46982;-65
2022/03/01 04:25:31;;;;;;;1.98;1.73;;;15.60;48.00;;;;;;4888448;28;45644;-69
2022/03/01 04:27:57;;;;;;;2.55;2.08;;;15.60;48.00;;;;;;4921772;28;45377;-65
2022/03/01 04:30:23;;;;;;;2.00;1.70;;;15.60;47.90;;;;;;4900563;28;44775;-66
2022/03/01 04:32:50;;;;;;;2.28;1.90;;;15.60;48.00;;;;;;4920417;28;45813;-67
2022/03/01 04:35:15;;;;;;;2.30;1.67;;;15.60;48.00;;;;;;4916354;28;45266;-65
2022/03/01 04:37:41;;;;;;;2.75;2.03;;;15.60;48.00;;;;;;4910701;28;45303;-69
2022/03/01 04:40:08;;;;;;;2.45;1.70;;;15.60;48.00;;;;;;4920367;28;45504;-65
2022/03/01 04:42:34;;;;;;;2.90;1.90;;;15.60;48.00;;;;;;4896056;28;45560;-66
2022/03/01 04:44:59;;;;;;;2.00;1.70;;;15.60;48.50;;;;;;4919299;28;46243;-66
2022/03/01 04:47:25;;;;;;;2.15;1.85;;;15.60;48.00;;;;;;4921584;28;45575;-65
2022/03/01 04:49:51;;;;;;;2.05;1.80;;;15.60;47.90;;;;;;4910964;28;45595;-66
2022/03/01 04:52:17;;;;;;;3.45;2.28;;;15.50;47.90;;;;;;4903850;28;47664;-67
2022/03/01 04:54:42;;;;;;;2.72;1.95;;;15.50;47.90;;;;;;4919312;28;44752;-66
2022/03/01 04:57:08;;;;;;;2.35;1.90;;;15.50;48.00;;;;;;4903313;28;45696;-64
2022/03/01 04:59:33;;;;;;;2.55;1.80;;;15.50;48.00;;;;;;4921855;28;46586;-65
2022/03/01 05:01:59;;;;;;;2.08;1.65;;;15.50;48.00;;;;;;4871648;28;46033;-65
2022/03/01 05:04:25;;;;;;;2.78;1.88;;;15.50;48.00;;;;;;4899813;28;45303;-66
2022/03/01 05:06:51;;;;;;;2.75;1.88;;;15.50;48.10;;;;;;4884581;28;45187;-65
2022/03/01 05:09:17;;;;;;;2.53;1.50;;;15.40;48.00;;;;;;4885540;28;44753;-65
2022/03/01 05:11:43;;;;;;;2.00;1.77;;;15.50;48.00;;;;;;4884063;28;46178;-71
2022/03/01 05:14:08;;;;;;;2.05;1.65;;;15.40;48.10;;;;;;4885473;28;45289;-66
2022/03/01 05:16:35;;;;;;;2.30;1.80;;;15.40;48.10;;;;;;4901493;28;45392;-68
2022/03/01 05:19:00;;;;;;;1.85;1.67;;;15.40;48.20;;;;;;4901372;28;45252;-66
2022/03/01 05:21:26;;;;;;;2.55;1.90;;;15.40;48.10;;;;;;4884874;28;45992;-65
2022/03/01 05:23:51;;;;;;;1.92;1.58;;;15.40;48.10;;;;;;4903300;28;45392;-65
2022/03/01 05:26:18;;;;;;;2.28;1.90;;;15.40;48.20;;;;;;4905767;28;45266;-65
2022/03/01 05:28:44;;;;;;;2.10;1.73;;;15.30;48.20;;;;;;4888568;28;45444;-66
2022/03/01 05:31:09;;;;;;;2.53;1.90;;;15.30;48.20;;;;;;4901633;28;45716;-65
2022/03/01 05:33:35;;;;;;;5.78;1.98;;;15.30;48.20;;;;;;4887714;28;44919;-65
2022/03/01 05:36:01;;;;;;;1.70;1.60;;;15.40;48.00;;;;;;4904419;28;46162;-66
2022/03/01 05:38:26;;;;;;;3.42;1.83;;;15.40;47.80;;;;;;4868218;28;45539;-65
2022/03/01 05:40:52;;;;;;;1.98;1.77;;;15.50;47.60;;;;;;4888667;28;45953;-66
2022/03/01 05:43:17;;;;;;;2.45;1.85;;;15.60;47.60;;;;;;4888707;28;45189;-65
2022/03/01 05:45:43;;;;;;;3.25;1.98;;;15.70;47.40;;;;;;4883679;28;45379;-66
2022/03/01 05:48:09;;;;;;;2.47;2.05;;;15.90;47.30;;;;;;4904181;28;45777;-65
2022/03/01 05:50:34;;;;;;;1.83;1.67;;;15.90;47.00;;;;;;4886281;28;46333;-66
2022/03/01 05:53:00;;;;;;;1.60;1.50;;;16.10;46.90;;;;;;4904065;28;45736;-66
2022/03/01 05:55:25;;;;;;;2.70;2.00;;;16.20;46.80;;;;;;4902924;28;45197;-66
2022/03/01 05:57:51;;;;;;;2.20;1.80;;;16.30;46.60;;;;;;4871121;28;45000;-65
2022/03/01 06:00:18;;;;;;;2.17;1.55;;;16.40;46.50;;;;;;4886373;28;46329;-64
2022/03/01 06:02:44;;;;;;;1.88;1.50;;;16.50;46.30;;;;;;4912640;28;45688;-65
2022/03/01 06:05:11;;;;;;;2.17;1.70;;;16.60;46.20;;;;;;4905914;28;45278;-64
2022/03/01 06:07:37;;;;;;;1.92;1.48;;;16.70;46.10;;;;;;4920541;28;46246;-66
2022/03/01 06:10:03;;;;;;;2.70;1.85;;;16.80;46.00;;;;;;4888837;28;46012;-66
2022/03/01 06:12:28;;;;;;;1.90;1.40;;;16.90;45.90;;;;;;4904669;28;45972;-66
2022/03/01 06:14:54;;;;;;;1.98;1.52;;;17.00;45.90;;;;;;4924028;28;45259;-65
2022/03/01 06:17:19;;;;;;;2.28;1.65;;;17.10;45.80;;;;;;4923622;28;45194;-65
2022/03/01 06:19:45;;;;;;;1.95;1.60;;;17.20;45.80;;;;;;4922534;28;45690;-65
2022/03/01 06:22:10;;;;;;;2.28;1.30;;;17.30;45.60;;;;;;4904590;28;45740;-64
2022/03/01 06:24:39;;;;;;;2.30;1.75;;;17.40;45.60;;;;;;4924541;28;44682;-65
2022/03/01 06:27:05;;;;;;;1.50;1.33;;;17.50;45.50;;;;;;4905786;28;45518;-65
2022/03/01 06:29:31;;;;;;;1.40;1.30;;;17.60;45.40;;;;;;4904582;28;47307;-65
2022/03/01 06:31:56;;;;;;;1.98;1.42;;;17.70;45.30;;;;;;4888592;28;46301;-65
2022/03/01 06:34:22;;;;;;;1.83;1.42;;;17.80;45.20;;;;;;4913381;28;45534;-66
2022/03/01 06:36:48;;;;;;;1.42;1.30;;;17.90;45.20;;;;;;4923571;28;45697;-67
2022/03/01 06:39:13;;;;;;;1.50;1.38;;;18.00;45.10;;;;;;4923303;28;45120;-67
2022/03/01 06:41:39;;;;;;;1.35;1.20;;;18.10;45.10;;;;;;4922455;28;45747;-67
2022/03/01 06:44:04;;;;;;;2.83;1.30;;;18.10;45.00;;;;;;4904932;28;46705;-66
2022/03/01 06:46:30;;;;;;;3.10;1.38;;;18.30;45.00;;;;;;4904899;28;45051;-67
2022/03/01 06:48:56;;;;;;;1.33;1.23;;;18.30;44.80;;;;;;4923174;28;45292;-66
2022/03/01 06:51:21;;;;;;;1.80;1.33;;;18.40;44.80;;;;;;4922541;28;44686;-66
2022/03/01 06:53:47;;;;;;;1.25;0.95;;;18.50;44.70;;;;;;4905852;28;44711;-66
2022/03/01 06:56:12;;;;;;;3.38;1.27;;;18.60;44.60;;;;;;4903083;28;45320;-65
2022/03/01 06:58:38;;;;;;;3.63;1.55;;;18.70;44.60;;;;;;4903746;28;45971;-66
2022/03/01 07:01:04;;;;;;;1.35;1.08;;;18.70;44.60;;;;;;4920825;28;45643;-67
2022/03/01 07:03:29;;;;;;;1.08;0.98;;;18.80;44.60;;;;;;4904999;28;45777;-66
2022/03/01 07:05:55;;;;;;;2.13;1.60;;;18.90;44.50;;;;;;4922331;28;45313;-67
2022/03/01 07:08:22;;;;;;;1.40;1.30;;;19.00;44.40;;;;;;4922977;28;45244;-67
2022/03/01 07:10:48;;;;;;;2.33;1.55;;;19.10;44.20;;;;;;4905145;28;45208;-67
2022/03/01 07:13:14;;;;;;;1.60;1.40;;;19.20;44.20;;;;;;4923018;28;45913;-67
2022/03/01 07:15:39;;;;;;;3.38;1.52;;;19.30;44.10;;;;;;4922729;28;45310;-66
2022/03/01 07:18:05;;;;;;;3.65;1.20;;;19.40;44.00;;;;;;4921903;28;45997;-67
2022/03/01 07:20:31;;;;;;;1.80;1.23;;;19.50;43.90;;;;;;4901463;28;45733;-67
2022/03/01 07:22:56;;;;;;;1.55;1.30;;;19.60;43.90;;;;;;4903792;28;45751;-66
2022/03/01 07:25:22;;;;;;;1.30;1.05;;;19.70;43.90;;;;;;4904691;28;45216;-67
2022/03/01 07:27:51;;;;;;;0.88;0.82;;;19.70;43.80;;;;;;4920226;28;45338;-67
2022/03/01 07:30:21;;;;;;;1.90;1.30;;;19.80;43.70;;;;;;4887354;28;45022;-67
2022/03/01 07:32:48;;;;;;;1.75;1.20;;;19.90;43.60;;;;;;4922622;28;45664;-66
2022/03/01 07:35:13;;;;;;;1.83;1.10;;;20.00;43.50;;;;;;4903473;28;44791;-67
2022/03/01 07:37:39;;;;;;;1.40;1.20;;;20.10;43.40;;;;;;4886594;28;45731;-67
2022/03/01 07:40:10;;;;;;;1.25;1.13;;;20.20;43.30;;;;;;4903668;28;45670;-67
2022/03/01 07:42:35;;;;;;;1.83;1.20;;;20.30;43.20;;;;;;4903268;28;45754;-66
2022/03/01 07:45:01;;;;;;;1.25;1.15;;;20.40;43.20;;;;;;4905176;28;44923;-67
2022/03/01 07:47:26;;;;;;;1.20;1.10;;;20.50;43.10;;;;;;4901917;28;45712;-67
2022/03/01 07:49:52;;;;;;;2.83;1.17;;;20.60;43.10;;;;;;4920503;28;45718;-67
2022/03/01 07:52:18;;;;;;;1.63;1.13;;;20.70;43.00;;;;;;4919288;28;46254;-65
2022/03/01 07:54:43;;;;;;;1.15;1.00;;;20.70;42.90;;;;;;4922555;28;44686;-66
2022/03/01 07:57:09;;;;;;;1.80;1.17;;;20.80;42.80;;;;;;4922336;28;45773;-66
2022/03/01 07:59:35;;;;;;;1.33;1.02;;;20.90;42.70;;;;;;4922073;28;46213;-66
2022/03/01 08:02:00;;;;;;;1.13;1.02;;;21.00;42.60;;;;;;4920139;28;45172;-66
2022/03/01 08:04:29;;;;;;;1.63;1.35;;;21.10;42.60;;;;;;4903438;28;45586;-68
2022/03/01 08:06:54;;;;;;;1.83;1.15;;;21.20;42.50;;;;;;4921407;28;46022;-68
2022/03/01 08:09:20;;;;;;;1.20;0.90;;;21.30;42.50;;;;;;4923187;28;46250;-67
2022/03/01 08:11:45;;;;;;;1.08;0.98;;;21.40;42.50;;;;;;4923472;28;44885;-67
2022/03/01 08:14:11;;;;;;;1.67;1.08;;;21.40;42.40;;;;;;4901459;28;45722;-67
2022/03/01 08:16:37;;;;;;;1.20;1.08;;;21.50;42.30;;;;;;4899570;28;47006;-66
2022/03/01 08:19:02;;;;;;;1.58;1.10;;;21.60;42.30;;;;;;4919093;28;45628;-65
2022/03/01 08:21:28;;;;;;;1.48;1.35;;;21.60;42.20;;;;;;4920308;28;45418;-66
2022/03/01 08:23:53;;;;;;;1.80;1.02;;;21.70;42.10;;;;;;4903527;28;44901;-66
2022/03/01 08:26:19;;;;;;;0.98;0.88;;;21.80;42.10;;;;;;4887193;28;46191;-66
2022/03/01 08:28:46;;;;;;;1.10;1.00;;;21.90;42.00;;;;;;4920933;28;45275;-65
2022/03/01 08:31:12;;;;;;;1.55;0.93;;;22.00;41.90;;;;;;4901619;28;45288;-66
2022/03/01 08:33:38;;;;;;;1.00;0.90;;;22.10;42.00;;;;;;4903238;28;45267;-65
2022/03/01 08:36:03;;;;;;;1.13;1.02;;;22.10;41.90;;;;;;4920551;28;46307;-65
2022/03/01 08:38:29;;;;;;;1.23;0.90;;;22.20;41.80;;;;;;4902087;28;45737;-65
2022/03/01 08:40:55;;;;;;;1.00;0.90;;;22.30;41.80;;;;;;4919992;28;46243;-67
2022/03/01 08:43:22;;;;;;;1.00;0.90;;;22.40;41.70;;;;;;4920906;28;45447;-67
2022/03/01 08:45:47;;;;;;;0.95;0.82;;;22.40;41.70;;;;;;4876855;28;47862;-67
2022/03/01 08:48:13;;;;;;;4.95;1.00;;;22.50;41.60;;;;;;4919065;28;45717;-67
2022/03/01 08:50:39;;;;;;;2.10;1.20;;;22.60;41.60;;;;;;4922234;28;45226;-67
2022/03/01 08:53:05;;;;;;;0.80;0.80;;;22.60;41.50;;;;;;4888807;28;44822;-67
2022/03/01 08:55:30;;;;;;;0.82;0.80;;;22.70;41.50;;;;;;4921308;28;46125;-68
2022/03/01 08:57:57;;;;;;;1.15;0.82;;;22.80;41.40;;;;;;4902219;28;46583;-67
2022/03/01 09:00:23;;;;;;;0.70;0.70;;;22.90;41.40;;;;;;4888193;28;45375;-67
2022/03/01 09:02:48;;;;;;;0.90;0.80;;;22.90;41.30;;;;;;4908732;28;45253;-67
2022/03/01 09:05:14;;;;;;;2.50;1.00;;;23.00;41.20;;;;;;4907420;28;46151;-67
2022/03/01 09:07:40;;;;;;;1.10;1.00;;;23.10;41.20;;;;;;4891050;28;45699;-66
2022/03/01 09:10:06;;;;;;;2.17;1.00;;;23.20;41.20;;;;;;4906175;28;45355;-67
2022/03/01 09:12:31;;;;;;;1.23;0.90;;;23.20;41.10;;;;;;4904273;28;45317;-67
2022/03/01 09:14:57;;;;;;;0.95;0.90;;;23.30;41.10;;;;;;4906077;28;46229;-66
2022/03/01 09:17:23;;;;;;;1.17;0.90;;;23.40;41.00;;;;;;4905895;28;45093;-67
2022/03/01 09:19:48;;;;;;;1.20;0.70;;;23.40;41.00;;;;;;4895369;28;44921;-65
2022/03/01 09:22:14;;;;;;;1.08;0.80;;;23.50;40.90;;;;;;4906932;28;45534;-64
2022/03/01 09:24:40;;;;;;;1.25;0.80;;;23.60;40.90;;;;;;4923215;28;45670;-65
2022/03/01 09:27:06;;;;;;;1.17;0.90;;;23.60;40.80;;;;;;4894575;28;45835;-66
2022/03/01 09:29:32;;;;;;;0.82;0.77;;;23.70;40.80;;;;;;4921338;28;45321;-66
2022/03/01 09:31:59;;;;;;;1.00;0.88;;;23.80;40.80;;;;;;4891642;28;44898;-65
2022/03/01 09:34:24;;;;;;;1.10;0.80;;;23.80;40.70;;;;;;4905731;28;45988;-67
2022/03/01 09:36:50;;;;;;;1.83;0.65;;;23.90;40.70;;;;;;4925146;28;44987;-66
2022/03/01 09:39:16;;;;;;;0.80;0.80;;;23.90;40.60;;;;;;4891984;28;45662;-66
2022/03/01 09:41:41;;;;;;;0.80;0.75;;;24.00;40.60;;;;;;4923503;28;45581;-66
2022/03/01 09:44:07;;;;;;;0.80;0.73;;;24.10;40.60;;;;;;4925279;28;45619;-66
2022/03/01 09:46:33;;;;;;;1.00;0.65;;;24.10;40.50;;;;;;4879263;28;46119;-65
2022/03/01 09:48:58;;;;;;;1.13;0.80;;;24.10;40.50;;;;;;4906222;28;45716;-65
2022/03/01 09:51:24;;;;;;;0.63;0.63;;;24.20;40.50;;;;;;4913409;28;45644;-66
2022/03/01 09:53:50;;;;;;;0.80;0.80;;;24.30;40.40;;;;;;4907219;28;46138;-66
2022/03/01 09:56:17;;;;;;;1.00;0.90;;;24.30;40.30;;;;;;4891055;28;45832;-66
2022/03/01 09:58:45;;;;;;;1.15;0.68;;;24.40;40.40;;;;;;4906272;28;45853;-67
2022/03/01 10:01:10;;;;;;;1.00;0.70;;;24.40;40.40;;;;;;4893161;28;45677;-65
2022/03/01 10:03:36;;;;;;;0.70;0.70;;;24.40;40.40;;;;;;4895625;28;46462;-66
2022/03/01 10:06:06;;;;;;;0.90;0.70;;;24.50;40.30;;;;;;4906496;28;46021;-66
2022/03/01 10:08:32;;;;;;;1.25;0.77;;;24.50;40.30;;;;;;4894629;28;45287;-67
2022/03/01 10:10:57;;;;;;;0.90;0.70;;;24.60;40.30;;;;;;4892828;28;45592;-66
2022/03/01 10:13:28;;;;;;;1.17;0.88;;;24.60;40.30;;;;;;4888610;28;45535;-67
2022/03/01 10:16:08;;;;;;;1.45;0.90;;;24.70;40.20;;;;;;4907601;28;45696;-66
2022/03/01 10:18:35;;;;;;;0.82;0.70;;;24.70;40.00;;;;;;4904952;28;46322;-67
2022/03/01 10:21:03;;;;;;;0.80;0.80;;;24.70;40.20;;;;;;4906483;28;45108;-66
2022/03/01 10:23:28;;;;;;;0.70;0.60;;;24.80;40.20;;;;;;4904325;28;46394;-67
2022/03/01 10:25:54;;;;;;;1.17;0.75;;;24.80;40.20;;;;;;4877754;28;45466;-66
2022/03/01 10:28:32;;;;;;;0.93;0.77;;;24.80;40.20;;;;;;4900904;28;46347;-65
2022/03/01 10:31:08;;;;;;;2.40;0.80;;;24.80;40.00;;;;;;4905737;28;45369;-65
2022/03/01 10:33:34;;;;;;;0.98;0.60;;;24.90;40.10;;;;;;4895223;28;46858;-66
2022/03/01 10:35:59;;;;;;;1.20;0.75;;;24.90;40.20;;;;;;4895021;28;45277;-66
2022/03/01 10:38:28;;;;;;;0.88;0.70;;;24.90;40.20;;;;;;4915056;28;44727;-66
2022/03/01 10:40:57;;;;;;;0.73;0.73;;;24.90;40.30;;;;;;4903641;28;45473;-65
2022/03/01 10:43:25;;;;;;;1.10;0.77;;;24.90;40.30;;;;;;4908975;28;46082;-65
2022/03/01 10:45:53;;;;;;;0.50;0.50;;;25.00;40.30;;;;;;4883879;28;46178;-69
2022/03/01 10:48:26;;;;;;;1.88;0.65;;;25.00;40.10;;;;;;4900597;28;45068;-67
2022/03/01 10:51:01;;;;;;;2.20;0.75;;;25.00;40.00;;;;;;4901005;28;45472;-67
2022/03/01 10:53:42;;;;;;;0.60;0.60;;;25.10;39.90;;;;;;4901647;28;47304;-68
2022/03/01 10:56:09;;;;;;;1.40;0.80;;;25.10;39.90;;;;;;4891988;28;45427;-68
2022/03/01 10:58:36;;;;;;;1.55;0.80;;;25.10;40.00;;;;;;4919624;28;45262;-68
2022/03/01 11:01:03;;;;;;;0.80;0.60;;;25.10;39.90;;;;;;4908608;28;45256;-69
2022/03/01 11:03:30;;;;;;;1.67;0.80;;;25.20;40.00;;;;;;4899462;28;45566;-67
2022/03/01 11:05:56;;;;;;;0.63;0.57;;;25.20;39.90;;;;;;4920011;28;45224;-68
2022/03/01 11:08:24;;;;;;;1.23;0.93;;;25.20;40.00;;;;;;4899107;28;46108;-69
2022/03/01 11:10:51;;;;;;;1.30;0.88;;;25.20;40.00;;;;;;4902657;28;45737;-68
2022/03/01 11:13:20;;;;;;;0.98;0.70;;;25.20;39.90;;;;;;4899324;28;45512;-68
2022/03/01 11:16:10;;;;;;;0.80;0.68;;;25.20;39.80;;;;;;4910520;28;45335;-69
2022/03/01 11:19:02;;;;;;;1.08;0.60;;;25.30;39.70;;;;;;4919294;28;45243;-69
2022/03/01 11:21:27;;;;;;;0.60;0.60;;;25.30;39.70;;;;;;4901184;28;45378;-68
2022/03/01 11:23:54;;;;;;;0.98;0.63;;;25.30;39.90;;;;;;4887114;28;45004;-68
2022/03/01 11:26:19;;;;;;;0.88;0.77;;;25.30;39.90;;;;;;4909349;28;45729;-68
2022/03/01 11:28:55;;;;;;;1.23;0.60;;;25.40;39.90;;;;;;4869240;28;45847;-69
2022/03/01 11:31:26;;;;;;;0.70;0.70;;;25.40;39.70;;;;;;4899722;28;44835;-69
2022/03/01 11:33:58;;;;;;;0.77;0.68;;;25.30;39.80;;;;;;4897131;28;45331;-68
2022/03/01 11:36:26;;;;;;;0.60;0.60;;;25.40;39.80;;;;;;4917928;28;45410;-67
2022/03/01 11:38:51;;;;;;;1.00;0.70;;;25.40;39.80;;;;;;4902307;28;45307;-68
2022/03/01 11:41:22;;;;;;;0.70;0.70;;;25.40;39.80;;;;;;4920201;28;45705;-68
2022/03/01 11:44:07;;;;;;;0.98;0.70;;;25.40;39.80;;;;;;4900134;28;45752;-68
2022/03/01 11:46:39;;;;;;;1.38;0.68;;;25.40;39.40;;;;;;4870328;28;45872;-69
2022/03/01 11:49:04;;;;;;;0.82;0.70;;;25.40;40.30;;;;;;4886282;28;45724;-67
2022/03/01 11:51:35;;;;;;;1.33;0.90;;;25.40;39.80;;;;;;4882870;28;45722;-67
2022/03/01 11:54:03;;;;;;;0.82;0.70;;;25.40;39.80;;;;;;4919095;28;45478;-67
2022/03/01 11:56:28;;;;;;;0.93;0.60;;;25.40;39.80;;;;;;4885615;28;45257;-67
2022/03/01 11:58:54;;;;;;;3.35;1.10;;;25.40;39.80;;;;;;4890342;28;45378;-67
2022/03/01 12:01:22;;;;;;;0.70;0.70;;;25.40;39.90;;;;;;4886326;28;44938;-67
2022/03/01 12:03:49;;;;;;;0.70;0.70;;;25.40;39.90;;;;;;4875236;29;46332;-68
2022/03/01 12:06:18;;;;;;;1.05;0.73;;;25.40;39.90;;;;;;4880548;28;44851;-68
2022/03/01 12:08:43;;;;;;;0.80;0.73;;;25.30;40.00;;;;;;4885172;28;46008;-67
2022/03/01 12:11:10;;;;;;;3.15;0.70;;;25.30;40.10;;;;;;4887761;28;45108;-67
2022/03/01 12:13:38;;;;;;;0.80;0.70;;;25.20;40.10;;;;;;4889217;28;46298;-67
2022/03/01 12:16:04;;;;;;;2.30;0.70;;;25.10;40.10;;;;;;4900112;28;45318;-67
2022/03/01 12:18:37;;;;;;;1.65;0.65;;;25.10;40.10;;;;;;4884849;29;45431;-67
2022/03/01 12:21:07;;;;;;;1.30;0.70;;;25.00;40.10;;;;;;4890553;28;45488;-67
2022/03/01 12:23:34;;;;;;;1.23;0.82;;;25.00;40.30;;;;;;4870038;29;46983;-70
2022/03/01 12:26:01;;;;;;;0.90;0.75;;;24.90;40.60;;;;;;4887540;28;45519;-66
2022/03/01 12:28:26;;;;;;;1.00;0.73;;;24.80;40.60;;;;;;4855185;29;45646;-67
2022/03/01 12:30:52;;;;;;;0.70;0.70;;;24.70;40.70;;;;;;4865705;29;45988;-68
2022/03/01 12:33:18;;;;;;;1.00;0.77;;;24.70;40.80;;;;;;4882129;29;46107;-67
2022/03/01 12:35:45;;;;;;;0.80;0.80;;;24.60;41.00;;;;;;4886512;28;46282;-68
2022/03/01 12:38:12;;;;;;;0.90;0.80;;;24.50;41.10;;;;;;4886607;29;45388;-68
2022/03/01 12:40:39;;;;;;;1.00;0.80;;;24.40;41.20;;;;;;4879822;28;46344;-67
2022/03/01 12:43:07;;;;;;;0.70;0.52;;;24.40;41.20;;;;;;4886974;28;47292;-66
2022/03/01 12:45:40;;;;;;;0.70;0.70;;;24.40;41.30;;;;;;4871331;29;46527;-67
2022/03/01 12:48:08;;;;;;;0.88;0.75;;;24.30;41.30;;;;;;4891464;29;45223;-67
2022/03/01 12:50:34;;;;;;;1.05;0.63;;;24.20;41.40;;;;;;4904224;28;45489;-66
2022/03/01 12:53:00;;;;;;;0.77;0.70;;;24.20;41.40;;;;;;4902157;28;45905;-67
2022/03/01 12:55:25;;;;;;;0.80;0.80;;;24.10;41.60;;;;;;4903218;28;45691;-67
2022/03/01 12:57:51;;;;;;;1.40;0.88;;;24.00;41.70;;;;;;4889353;28;45431;-67
2022/03/01 13:00:17;;;;;;;1.50;0.85;;;24.00;41.70;;;;;;4884941;28;45491;-65
2022/03/01 13:02:54;;;;;;;0.70;0.70;;;23.90;41.70;;;;;;4908877;28;45146;-66
2022/03/01 13:05:29;;;;;;;1.05;0.95;;;23.90;41.80;;;;;;4900877;28;45743;-66
2022/03/01 13:07:55;;;;;;;1.08;0.70;;;23.80;41.90;;;;;;4900737;28;45365;-66
2022/03/01 13:10:34;;;;;;;1.00;0.73;;;23.80;42.00;;;;;;4884662;28;45061;-66
2022/03/01 13:13:05;;;;;;;0.70;0.60;;;23.80;41.90;;;;;;4882302;28;45700;-66
2022/03/01 13:15:31;;;;;;;0.95;0.73;;;23.80;41.90;;;;;;4899870;28;46439;-66
2022/03/01 13:17:58;;;;;;;1.45;0.90;;;23.70;42.00;;;;;;4919684;28;45328;-66
2022/03/01 13:20:24;;;;;;;1.25;0.85;;;23.60;42.00;;;;;;4882020;28;45421;-65
2022/03/01 13:23:07;;;;;;;2.58;1.10;;;23.60;42.10;;;;;;4916855;28;45518;-66
2022/03/01 13:25:37;;;;;;;1.00;0.80;;;23.60;42.20;;;;;;4883755;28;44833;-65
2022/03/01 13:28:03;;;;;;;0.93;0.80;;;23.50;42.30;;;;;;4913424;28;44835;-67
2022/03/01 13:30:29;;;;;;;0.77;0.77;;;23.40;42.30;;;;;;4913735;28;45569;-68
2022/03/01 13:33:09;;;;;;;0.93;0.82;;;23.40;42.40;;;;;;4907891;28;47137;-66
2022/03/01 13:35:35;;;;;;;0.73;0.73;;;23.40;42.50;;;;;;4882689;28;46185;-67
2022/03/01 13:38:08;;;;;;;1.30;0.90;;;23.30;42.50;;;;;;4917011;28;45689;-67
2022/03/01 13:40:42;;;;;;;0.60;0.60;;;23.30;42.50;;;;;;4881938;28;45756;-67
2022/03/01 13:43:08;;;;;;;0.85;0.73;;;23.30;42.50;;;;;;4905414;28;46926;-69
2022/03/01 13:45:34;;;;;;;0.73;0.60;;;23.20;42.60;;;;;;4917279;28;45348;-68
2022/03/01 13:48:16;;;;;;;3.00;0.80;;;23.10;42.70;;;;;;4920582;28;45051;-68
2022/03/01 13:50:44;;;;;;;1.13;0.60;;;23.10;42.80;;;;;;4899878;28;45326;-68
2022/03/01 13:53:18;;;;;;;1.08;0.88;;;23.00;42.80;;;;;;4894026;28;46021;-67
2022/03/01 13:55:45;;;;;;;0.80;0.80;;;23.00;42.90;;;;;;4908407;28;45353;-69
2022/03/01 13:58:16;;;;;;;1.08;0.80;;;22.90;42.90;;;;;;4916284;28;45715;-69
2022/03/01 14:00:46;;;;;;;1.17;0.82;;;22.90;42.90;;;;;;4890383;28;45890;-67
2022/03/01 14:03:16;;;;;;;0.80;0.80;;;22.90;43.00;;;;;;4884051;28;47702;-67
2022/03/01 14:06:03;;;;;;;1.30;0.85;;;22.80;43.00;;;;;;4899871;28;45565;-70
2022/03/01 14:08:30;;;;;;;0.93;0.70;;;22.70;43.10;;;;;;4892750;28;45384;-67
2022/03/01 14:10:56;;;;;;;0.63;0.60;;;22.70;43.10;;;;;;4887707;28;45446;-69
2022/03/01 14:13:31;;;;;;;1.13;0.63;;;22.70;43.20;;;;;;4917563;28;44983;-69
2022/03/01 14:16:08;;;;;;;1.45;1.02;;;22.60;43.20;;;;;;4897810;28;45401;-67
2022/03/01 14:18:47;;;;;;;1.10;0.80;;;22.60;43.30;;;;;;4898107;28;45807;-67
2022/03/01 14:21:16;;;;;;;1.38;0.82;;;22.60;43.40;;;;;;4901280;28;44819;-67
2022/03/01 14:23:42;;;;;;;1.23;0.80;;;22.60;43.40;;;;;;4902016;28;46236;-67
2022/03/01 14:26:08;;;;;;;1.88;1.38;;;22.50;43.40;;;;;;4917622;28;45691;-67
2022/03/01 14:28:33;;;;;;;1.25;0.70;;;22.50;43.40;;;;;;4921470;28;45331;-68
2022/03/01 14:30:59;;;;;;;0.80;0.70;;;22.50;43.30;;;;;;4893586;28;45594;-67
2022/03/01 14:33:26;;;;;;;0.85;0.65;;;22.50;43.30;;;;;;4892930;28;45958;-69
2022/03/01 14:35:52;;;;;;;1.50;0.88;;;22.40;43.30;;;;;;4902251;28;45629;-69
2022/03/01 14:38:18;;;;;;;0.80;0.63;;;22.40;43.40;;;;;;4898120;28;45757;-67
2022/03/01 14:40:44;;;;;;;1.13;0.70;;;22.40;43.50;;;;;;4901913;28;45504;-67
2022/03/01 14:43:09;;;;;;;1.08;0.90;;;22.30;43.60;;;;;;4887269;28;45911;-66
2022/03/01 14:45:35;;;;;;;4.60;1.17;;;22.20;43.70;;;;;;4886454;28;45281;-66
2022/03/01 14:48:01;;;;;;;0.85;0.70;;;22.20;43.80;;;;;;4887143;28;45372;-66
2022/03/01 14:50:26;;;;;;;4.22;1.05;;;22.20;43.80;;;;;;4915103;28;45250;-66
2022/03/01 14:52:52;;;;;;;0.80;0.80;;;22.10;43.80;;;;;;4917025;28;46779;-67
2022/03/01 14:55:18;;;;;;;0.65;0.65;;;22.10;43.80;;;;;;4901392;28;45324;-67
2022/03/01 14:57:43;;;;;;;1.27;0.90;;;22.10;43.80;;;;;;4901153;28;45727;-66
2022/03/01 15:00:09;;;;;;;1.17;0.80;;;22.10;43.90;;;;;;4900836;28;45670;-66
2022/03/01 15:02:38;;;;;;;1.20;0.93;;;22.10;43.90;;;;;;4900029;28;45257;-67
2022/03/01 15:05:05;;;;;;;0.93;0.80;;;22.10;43.80;;;;;;4920089;28;44759;-67
2022/03/01 15:07:30;;;;;;;1.17;0.88;;;22.10;43.70;;;;;;4896625;28;45616;-66
2022/03/01 15:09:56;;;;;;;1.40;0.98;;;22.00;43.70;;;;;;4919298;28;45968;-66
2022/03/01 15:12:21;;;;;;;0.70;0.70;;;22.00;43.80;;;;;;4884779;28;46214;-67
2022/03/01 15:14:47;;;;;;;0.85;0.70;;;22.00;43.70;;;;;;4918714;28;45583;-67
2022/03/01 15:17:13;;;;;;;1.08;0.90;;;22.00;43.80;;;;;;4902788;28;46155;-66
2022/03/01 15:19:40;;;;;;;2.47;0.80;;;21.90;43.70;;;;;;4900359;28;45645;-67
2022/03/01 15:22:08;;;;;;;1.88;0.98;;;21.90;43.80;;;;;;4900376;28;47347;-67
2022/03/01 15:24:33;;;;;;;1.35;1.02;;;21.80;43.40;;;;;;4919619;28;45429;-67
2022/03/01 15:26:59;;;;;;;1.60;0.90;;;21.80;43.30;;;;;;4920260;28;44816;-67
2022/03/01 15:29:25;;;;;;;0.88;0.77;;;21.70;43.30;;;;;;4918331;28;45004;-68
2022/03/01 15:31:50;;;;;;;0.98;0.88;;;21.60;42.70;;;;;;4899778;28;46618;-67
2022/03/01 15:34:16;;;;;;;1.15;1.02;;;21.50;42.90;;;;;;4919271;28;44767;-67
2022/03/01 15:36:44;;;;;;;3.40;1.00;;;21.40;42.80;;;;;;4918209;28;45810;-66
2022/03/01 15:39:09;;;;;;;2.88;1.20;;;21.40;43.10;;;;;;4914681;28;45776;-67
2022/03/01 15:41:35;;;;;;;1.42;1.00;;;21.40;43.10;;;;;;4899726;28;46318;-67
2022/03/01 15:44:01;;;;;;;2.70;1.15;;;21.40;43.20;;;;;;4899033;28;46240;-68
2022/03/01 15:46:26;;;;;;;1.00;0.80;;;21.40;43.10;;;;;;4900447;28;45708;-66
2022/03/01 15:48:52;;;;;;;1.48;0.90;;;21.30;43.20;;;;;;4886443;28;45741;-67
2022/03/01 15:51:17;;;;;;;0.73;0.70;;;21.30;43.30;;;;;;4900161;28;45529;-66
2022/03/01 15:53:43;;;;;;;3.95;1.20;;;21.30;43.30;;;;;;4885587;28;45322;-67
2022/03/01 15:56:09;;;;;;;2.00;0.82;;;21.20;43.30;;;;;;4919002;28;45519;-66
2022/03/01 15:58:34;;;;;;;1.35;0.95;;;21.20;43.40;;;;;;4882358;28;45608;-67
2022/03/01 16:01:00;;;;;;;1.25;0.95;;;21.20;44.10;;;;;;4882861;28;45388;-68
2022/03/01 16:03:25;;;;;;;2.03;1.00;;;21.10;43.60;;;;;;4899945;28;46400;-66
2022/03/01 16:05:51;;;;;;;1.88;1.00;;;21.10;43.60;;;;;;4917044;28;46175;-66
2022/03/01 16:08:16;;;;;;;1.58;0.98;;;21.10;43.60;;;;;;4904518;28;45536;-67
2022/03/01 16:10:42;;;;;;;1.42;0.85;;;21.00;43.60;;;;;;4891727;28;46048;-67
2022/03/01 16:13:08;;;;;;;1.10;1.00;;;21.00;43.70;;;;;;4921438;28;45406;-67
2022/03/01 16:15:34;;;;;;;1.23;1.08;;;21.00;43.70;;;;;;4888746;28;45726;-67
2022/03/01 16:18:00;;;;;;;3.00;0.90;;;20.90;43.70;;;;;;4877835;28;44936;-67
2022/03/01 16:20:25;;;;;;;1.20;1.08;;;20.90;43.80;;;;;;4883473;28;45761;-67
2022/03/01 16:22:51;;;;;;;1.75;1.13;;;20.90;43.90;;;;;;4918246;28;45749;-66
2022/03/01 16:25:16;;;;;;;2.45;1.00;;;20.80;43.90;;;;;;4898388;28;45857;-66
2022/03/01 16:27:42;;;;;;;1.42;0.98;;;20.80;43.90;;;;;;4918576;28;45281;-66
2022/03/01 16:30:09;;;;;;;1.13;1.00;;;20.80;43.90;;;;;;4896416;28;46045;-66
2022/03/01 16:32:35;;;;;;;0.88;0.82;;;20.70;44.00;;;;;;4899676;28;45373;-66
2022/03/01 16:35:00;;;;;;;2.25;0.98;;;20.70;44.00;;;;;;4917112;28;45739;-67
2022/03/01 16:37:26;;;;;;;1.27;0.90;;;20.70;44.00;;;;;;4915387;28;45702;-68
2022/03/01 16:39:52;;;;;;;1.30;1.05;;;20.60;44.00;;;;;;4915879;28;45490;-68
2022/03/01 16:42:18;;;;;;;1.13;0.93;;;20.60;44.00;;;;;;4912496;28;46342;-67
2022/03/01 16:44:43;;;;;;;1.55;1.00;;;20.50;44.30;;;;;;4916118;28;46288;-67
2022/03/01 16:47:09;;;;;;;1.02;0.85;;;20.40;44.40;;;;;;4898051;28;45667;-66